createdAt,value
2023-04-07T00:03:20.762Z,0.36
2023-04-07T00:08:23.900Z,-1.46
2023-04-07T00:13:27.954Z,-0.24
2023-04-07T00:18:31.248Z,-0.64
2023-04-07T00:23:38.716Z,0.27
2023-04-07T00:28:41.489Z,-0.65
2023-04-07T00:33:44.313Z,-1.18
2023-04-07T00:38:47.626Z,-1.03
2023-04-07T00:43:54.190Z,-0.37
2023-04-07T00:49:09.329Z,-1.05
2023-04-07T00:54:14.124Z,-0.61
2023-04-07T00:59:26.894Z,-0.22
2023-04-07T01:04:36.628Z,0.25
2023-04-07T01:09:47.549Z,0.12
2023-04-07T01:15:05.943Z,0.13
2023-04-07T01:20:12.253Z,-0.77
2023-04-07T01:25:25.582Z,-0.26
2023-04-07T01:30:42.528Z,-0.47
2023-04-07T01:36:07.563Z,-0.17
2023-04-07T01:41:12.331Z,-1.35
2023-04-07T01:46:16.337Z,-0.97
2023-04-07T01:51:20.856Z,-1.05
2023-04-07T01:56:24.028Z,-2.28
2023-04-07T02:01:27.210Z,-1.55
2023-04-07T02:06:35.967Z,-1.03
2023-04-07T02:11:41.598Z,-1.29
2023-04-07T02:16:46.794Z,-1.56
2023-04-07T02:21:53.272Z,-1.74
2023-04-07T02:26:57.316Z,-2.96
2023-04-07T02:32:00.175Z,-2.43
2023-04-07T02:37:09.678Z,-1.33
2023-04-07T02:42:12.482Z,-2.58
2023-04-07T02:47:15.248Z,-2.26
2023-04-07T02:52:28.195Z,-0.70
2023-04-07T02:57:31.270Z,-2.07
2023-04-07T03:02:36.028Z,-3.17
2023-04-07T03:07:39.287Z,-2.27
2023-04-07T03:12:41.861Z,-2.80
2023-04-07T03:17:46.228Z,-2.83
2023-04-07T03:22:48.930Z,-1.74
2023-04-07T03:27:51.762Z,-2.11
2023-04-07T03:32:55.314Z,-1.34
2023-04-07T03:37:57.984Z,-1.26
2023-04-07T03:43:01.125Z,-1.09
2023-04-07T03:48:04.649Z,-1.16
2023-04-07T03:53:07.772Z,-3.02
2023-04-07T03:58:11.709Z,-1.56
2023-04-07T04:03:24.679Z,-1.90
2023-04-07T04:08:28.208Z,-1.42
2023-04-07T04:13:30.825Z,-1.65
2023-04-07T04:18:33.811Z,-1.28
2023-04-07T04:23:37.001Z,-1.79
2023-04-07T04:28:39.554Z,-2.54
2023-04-07T04:33:42.677Z,-2.01
2023-04-07T04:38:45.655Z,-2.62
2023-04-07T04:43:48.535Z,-1.90
2023-04-07T04:48:52.555Z,-3.97
2023-04-07T04:53:57.033Z,-2.71
2023-04-07T04:58:59.868Z,-3.05
2023-04-07T05:04:02.906Z,-3.08
2023-04-07T05:09:07.087Z,-1.27
2023-04-07T05:14:10.200Z,-2.56
2023-04-07T05:19:12.962Z,-1.27
2023-04-07T05:24:15.813Z,-0.84
2023-04-07T05:29:18.797Z,-0.57
2023-04-07T05:34:21.724Z,-1.38
2023-04-07T05:39:24.939Z,-2.05
2023-04-07T05:44:27.735Z,-0.24
2023-04-07T05:49:30.556Z,-0.17
2023-04-07T05:54:34.150Z,0.06
2023-04-07T05:59:37.725Z,-0.79
2023-04-07T06:04:40.619Z,0.11
2023-04-07T06:09:43.590Z,-0.12
2023-04-07T06:14:52.512Z,-0.26
2023-04-07T06:19:55.067Z,0.22
2023-04-07T06:24:57.698Z,2.00
2023-04-07T06:30:01.646Z,2.07
2023-04-07T06:35:04.517Z,2.73
2023-04-07T06:40:08.946Z,2.58
2023-04-07T06:45:11.810Z,2.74
2023-04-07T06:50:14.697Z,2.41
2023-04-07T06:55:17.523Z,3.66
2023-04-07T07:00:24.995Z,3.00
2023-04-07T07:05:28.070Z,3.88
2023-04-07T07:10:41.136Z,4.62
2023-04-07T07:15:43.782Z,4.87
2023-04-07T07:20:46.944Z,6.65
2023-04-07T07:25:49.898Z,7.05
2023-04-07T07:30:52.660Z,7.52
2023-04-07T07:36:05.500Z,7.08
2023-04-07T07:41:08.751Z,8.05
2023-04-07T07:46:11.424Z,6.88
2023-04-07T07:51:15.901Z,8.69
2023-04-07T07:56:18.530Z,8.31
2023-04-07T08:01:21.573Z,7.91
2023-04-07T08:06:25.512Z,9.80
2023-04-07T08:11:28.253Z,8.77
2023-04-07T08:16:31.422Z,8.23
2023-04-07T08:21:34.373Z,9.52
2023-04-07T08:26:36.962Z,10.63
2023-04-07T08:31:39.740Z,10.11
2023-04-07T08:36:52.560Z,10.14
2023-04-07T08:41:56.360Z,10.80
2023-04-07T08:47:02.207Z,10.84
2023-04-07T08:52:11.401Z,11.20
2023-04-07T08:57:15.741Z,11.42
2023-04-07T09:02:20.287Z,11.74
2023-04-07T09:07:23.071Z,10.69
2023-04-07T09:12:26.399Z,12.27
2023-04-07T09:17:30.721Z,10.91
2023-04-07T09:22:38.308Z,13.78
2023-04-07T09:27:41.182Z,13.37
2023-04-07T09:32:44.123Z,13.31
2023-04-07T09:38:03.386Z,13.14
2023-04-07T09:43:17.197Z,14.72
2023-04-07T09:48:22.906Z,13.52
2023-04-07T09:53:49.864Z,14.54
2023-04-07T09:59:05.209Z,13.18
2023-04-07T10:04:08.403Z,13.42
2023-04-07T10:09:11.613Z,12.87
2023-04-07T10:14:29.146Z,14.82
2023-04-07T10:19:34.604Z,14.06
2023-04-07T10:24:49.308Z,14.73
2023-04-07T10:29:53.871Z,15.38
2023-04-07T10:34:59.257Z,14.72
2023-04-07T10:40:20.529Z,16.76
2023-04-07T10:45:53.131Z,17.26
2023-04-07T10:51:13.509Z,15.29
2023-04-07T10:56:16.350Z,16.13
2023-04-07T11:01:20.567Z,14.83
2023-04-07T11:06:25.530Z,14.94
2023-04-07T11:11:39.855Z,13.66
2023-04-07T11:16:44.573Z,13.86
2023-04-07T11:21:47.753Z,13.60
2023-04-07T11:26:50.739Z,13.77
2023-04-07T11:31:53.744Z,14.08
2023-04-07T11:37:00.543Z,13.89
2023-04-07T11:42:04.312Z,12.30
2023-04-07T11:47:07.425Z,14.19
2023-04-07T11:52:16.580Z,13.85
2023-04-07T11:57:30.164Z,13.93
2023-04-07T12:02:36.732Z,13.02
2023-04-07T12:07:42.650Z,12.46
2023-04-07T12:12:47.447Z,12.73
2023-04-07T12:17:50.553Z,13.24
2023-04-07T12:22:53.575Z,12.58
2023-04-07T12:27:56.588Z,12.13
2023-04-07T12:32:59.326Z,12.79
2023-04-07T12:38:02.030Z,13.91
2023-04-07T12:43:06.118Z,13.36
2023-04-07T12:48:08.850Z,13.20
2023-04-07T12:53:11.727Z,14.05
2023-04-07T12:58:15.582Z,13.46
2023-04-07T13:03:18.698Z,13.52
2023-04-07T13:08:22.699Z,13.89
2023-04-07T13:13:25.803Z,14.00
2023-04-07T13:18:28.648Z,13.77
2023-04-07T13:23:43.845Z,13.76
2023-04-07T13:28:47.172Z,12.86
2023-04-07T13:33:50.461Z,13.86
2023-04-07T13:38:53.492Z,13.43
2023-04-07T13:43:56.264Z,13.38
2023-04-07T13:48:59.709Z,13.60
2023-04-07T13:54:02.317Z,12.89
2023-04-07T13:59:07.217Z,11.27
2023-04-07T14:04:10.632Z,13.14
2023-04-07T14:09:16.979Z,12.47
2023-04-07T14:14:20.655Z,12.80
2023-04-07T14:19:25.841Z,12.92
2023-04-07T14:24:28.892Z,12.64
2023-04-07T14:29:31.656Z,11.85
2023-04-07T14:34:34.385Z,11.85
2023-04-07T14:40:01.282Z,11.33
2023-04-07T14:45:05.852Z,10.21
2023-04-07T14:50:08.877Z,11.96
2023-04-07T14:55:12.410Z,11.80
2023-04-07T15:00:15.761Z,11.09
2023-04-07T15:05:18.325Z,12.12
2023-04-07T15:10:22.076Z,11.90
2023-04-07T15:15:35.086Z,12.26
2023-04-07T15:20:37.717Z,12.47
2023-04-07T15:25:40.512Z,10.24
2023-04-07T15:30:45.644Z,12.12
2023-04-07T15:35:48.322Z,12.16
2023-04-07T15:40:51.360Z,11.17
2023-04-07T15:45:56.669Z,11.87
2023-04-07T15:50:59.545Z,11.81
2023-04-07T15:56:02.632Z,10.79
2023-04-07T16:01:06.254Z,10.78
2023-04-07T16:06:09.101Z,11.99
2023-04-07T16:11:12.180Z,11.73
2023-04-07T16:16:16.540Z,12.67
2023-04-07T16:21:19.339Z,11.65
2023-04-07T16:26:22.821Z,11.50
2023-04-07T16:31:25.465Z,12.25
2023-04-07T16:36:28.286Z,11.34
2023-04-07T16:41:30.951Z,10.43
2023-04-07T16:46:33.677Z,10.18
2023-04-07T16:51:38.068Z,10.70
2023-04-07T16:56:51.078Z,11.58
2023-04-07T17:02:14.688Z,11.15
2023-04-07T17:07:17.743Z,10.61
2023-04-07T17:12:20.626Z,10.93
2023-04-07T17:17:23.431Z,10.47
2023-04-07T17:22:26.810Z,10.35
2023-04-07T17:27:29.377Z,8.90
2023-04-07T17:32:32.962Z,8.68
2023-04-07T17:37:35.701Z,8.10
2023-04-07T17:42:39.826Z,7.20
2023-04-07T17:47:47.224Z,6.25
2023-04-07T17:52:50.869Z,7.24
2023-04-07T17:57:53.607Z,5.33
2023-04-07T18:02:56.925Z,5.99
2023-04-07T18:08:00.846Z,5.56
2023-04-07T18:13:06.041Z,5.82
2023-04-07T18:18:08.662Z,6.17
2023-04-07T18:23:11.617Z,6.35
2023-04-07T18:28:14.801Z,4.36
2023-04-07T18:33:20.952Z,3.07
2023-04-07T18:38:23.751Z,3.95
2023-04-07T18:43:27.584Z,5.69
2023-04-07T18:48:30.314Z,4.77
2023-04-07T18:53:36.960Z,3.53
2023-04-07T18:58:45.053Z,3.81
2023-04-07T19:03:48.803Z,5.32
2023-04-07T19:08:51.984Z,5.02
2023-04-07T19:13:54.805Z,3.04
2023-04-07T19:18:57.999Z,4.98
2023-04-07T19:24:00.742Z,4.27
2023-04-07T19:29:06.636Z,4.05
2023-04-07T19:34:09.442Z,3.97
2023-04-07T19:39:12.814Z,3.97
2023-04-07T19:44:16.026Z,4.20
2023-04-07T19:49:23.088Z,3.54
2023-04-07T19:54:25.728Z,2.55
2023-04-07T19:59:28.518Z,3.98
2023-04-07T20:04:32.388Z,3.02
2023-04-07T20:09:36.724Z,3.11
2023-04-07T20:14:39.761Z,3.73
2023-04-07T20:19:42.522Z,3.17
2023-04-07T20:24:45.407Z,2.38
2023-04-07T20:29:49.362Z,2.99
2023-04-07T20:34:54.798Z,3.59
2023-04-07T20:39:57.784Z,2.83
2023-04-07T20:45:04.441Z,2.54
2023-04-07T20:50:07.628Z,3.71
2023-04-07T20:55:11.391Z,2.88
2023-04-07T21:00:14.470Z,2.78
2023-04-07T21:05:18.800Z,2.21
2023-04-07T21:10:22.008Z,3.38
2023-04-07T21:15:24.641Z,2.77
2023-04-07T21:20:27.433Z,3.01
2023-04-07T21:25:31.638Z,1.80
2023-04-07T21:30:34.263Z,3.36
2023-04-07T21:35:37.128Z,2.11
2023-04-07T21:40:40.878Z,0.25
2023-04-07T21:45:43.596Z,2.00
2023-04-07T21:50:46.393Z,0.86
2023-04-07T21:55:49.317Z,1.44
2023-04-07T22:00:53.913Z,2.32
2023-04-07T22:06:01.162Z,1.24
2023-04-07T22:11:24.037Z,2.21
2023-04-07T22:16:27.073Z,0.34
2023-04-07T22:21:30.459Z,1.25
2023-04-07T22:26:34.433Z,1.23
2023-04-07T22:31:47.298Z,0.65
2023-04-07T22:36:50.123Z,1.30
2023-04-07T22:41:52.655Z,2.17
2023-04-07T22:46:57.190Z,1.94
2023-04-07T22:51:59.990Z,2.27
2023-04-07T22:57:03.368Z,1.70
2023-04-07T23:02:06.263Z,1.77
2023-04-07T23:07:08.872Z,1.70
2023-04-07T23:12:11.763Z,2.04
2023-04-07T23:17:14.479Z,0.53
2023-04-07T23:22:17.328Z,1.32
2023-04-07T23:27:20.183Z,0.90
2023-04-07T23:32:24.575Z,0.31
2023-04-07T23:37:34.078Z,1.20
2023-04-07T23:42:37.633Z,1.43
2023-04-07T23:47:40.484Z,1.63
2023-04-07T23:52:43.281Z,0.21
2023-04-07T23:57:45.986Z,0.38
